Little Sioux, Iowa
Current Conditions -  °F | °C
As of 12:54 AM on Sunday 26 Oct 2014 (Local Time) from KTQE Reporting Station
Clear Clear  
Wind Chill: 48°   Ceiling: Unl
Heat Index: 48°   Visibility: 10mi
Dew Point: 39°   Wind: 0mph
Humidity: 71%   Direction: NA
Pressure: 30"   Gusts: NA
Location:  41.81°N, 96.02°W
Report Text: KTQE 260554Z AUTO 00000KT 10SM CLR 09/04 A3000 RMK AO2 SLP154 T00890039 10167 20083 402390061 58014
Loading
Personal Weather Stations






























Interactive Weather Map
Tropical Storm Tracking
New forecast layout! Learn more

10-Day Weather Forecast

Advertisements
Track Severe Weather on mobile